createdAt,value
2018-02-13T00:00:35.059Z,1.10
2018-02-13T00:03:02.497Z,1.00
2018-02-13T00:05:29.925Z,1.00
2018-02-13T00:07:57.363Z,1.00
2018-02-13T00:10:25.602Z,0.90
2018-02-13T00:12:53.028Z,0.90
2018-02-13T00:15:20.466Z,0.90
2018-02-13T00:17:48.686Z,0.90
2018-02-13T00:20:16.132Z,0.80
2018-02-13T00:22:49.504Z,0.90
2018-02-13T00:25:16.988Z,0.90
2018-02-13T00:27:44.457Z,0.90
2018-02-13T00:30:11.914Z,0.90
2018-02-13T00:32:39.358Z,0.90
2018-02-13T00:35:06.815Z,0.90
2018-02-13T00:37:34.273Z,0.80
2018-02-13T00:40:01.711Z,0.80
2018-02-13T00:42:29.194Z,0.80
2018-02-13T00:44:56.622Z,0.80
2018-02-13T00:47:24.102Z,0.80
2018-02-13T00:49:51.534Z,0.80
2018-02-13T00:52:18.963Z,0.80
2018-02-13T00:54:47.188Z,0.70
2018-02-13T00:57:14.641Z,0.70
2018-02-13T00:59:42.076Z,0.70
2018-02-13T01:02:09.558Z,0.70
2018-02-13T01:04:36.994Z,0.70
2018-02-13T01:07:04.432Z,0.70
2018-02-13T01:09:32.030Z,0.70
2018-02-13T01:11:59.452Z,0.70
2018-02-13T01:14:26.974Z,0.80
2018-02-13T01:16:54.400Z,0.80
2018-02-13T01:19:21.845Z,0.80
2018-02-13T01:21:49.286Z,0.80
2018-02-13T01:24:16.769Z,0.80
2018-02-13T01:26:44.202Z,0.80
2018-02-13T01:29:11.657Z,0.80
2018-02-13T01:31:39.229Z,0.70
2018-02-13T01:34:06.671Z,0.70
2018-02-13T01:36:34.105Z,0.70
2018-02-13T01:39:02.303Z,0.70
2018-02-13T01:41:29.750Z,0.60
2018-02-13T01:43:57.185Z,0.70
2018-02-13T01:46:25.402Z,0.80
2018-02-13T01:48:52.837Z,0.70
2018-02-13T01:51:20.399Z,0.80
2018-02-13T01:53:47.825Z,0.80
2018-02-13T01:56:15.258Z,0.80
2018-02-13T01:58:42.685Z,0.70
2018-02-13T02:01:10.123Z,0.80
2018-02-13T02:03:37.549Z,0.80
2018-02-13T02:06:05.773Z,0.80
2018-02-13T02:08:33.226Z,0.80
2018-02-13T02:11:00.677Z,0.80
2018-02-13T02:13:28.158Z,0.90
2018-02-13T02:15:55.608Z,0.90
2018-02-13T02:18:23.120Z,0.90
2018-02-13T02:20:50.549Z,0.90
2018-02-13T02:23:18.782Z,1.00
2018-02-13T02:25:46.345Z,0.90
2018-02-13T02:28:13.781Z,1.00
2018-02-13T02:30:41.212Z,0.90
2018-02-13T02:33:09.429Z,0.90
2018-02-13T02:35:36.889Z,0.90
2018-02-13T02:38:04.345Z,0.90
2018-02-13T02:40:31.803Z,0.80
2018-02-13T02:43:06.137Z,0.80
2018-02-13T02:45:33.582Z,0.90
2018-02-13T02:48:01.116Z,0.80
2018-02-13T02:50:28.521Z,0.90
2018-02-13T02:52:56.016Z,0.80
2018-02-13T02:55:23.497Z,0.80
2018-02-13T02:57:50.950Z,0.80
2018-02-13T03:00:18.430Z,0.80
2018-02-13T03:02:45.884Z,0.80
2018-02-13T03:05:13.444Z,0.80
2018-02-13T03:07:40.882Z,0.80
2018-02-13T03:10:08.304Z,0.80
2018-02-13T03:12:35.792Z,0.80
2018-02-13T03:15:03.265Z,0.70
2018-02-13T03:17:30.706Z,0.80
2018-02-13T03:19:58.157Z,0.80
2018-02-13T03:22:25.581Z,0.80
2018-02-13T03:24:53.088Z,0.80
2018-02-13T03:27:20.528Z,0.80
2018-02-13T03:29:48.074Z,0.80
2018-02-13T03:32:15.549Z,0.80
2018-02-13T03:34:43.072Z,0.70
2018-02-13T03:37:10.513Z,0.70
2018-02-13T03:39:38.741Z,0.80
2018-02-13T03:42:06.194Z,0.70
2018-02-13T03:44:33.749Z,0.80
2018-02-13T03:47:01.225Z,0.80
2018-02-13T03:49:28.874Z,0.80
2018-02-13T03:51:56.324Z,0.80
2018-02-13T03:54:23.868Z,0.80
2018-02-13T03:56:51.431Z,0.80
2018-02-13T03:59:18.849Z,0.90
2018-02-13T04:01:47.041Z,0.90
2018-02-13T04:04:14.529Z,0.90
2018-02-13T04:06:41.989Z,0.90
2018-02-13T04:09:09.432Z,0.90
2018-02-13T04:11:36.888Z,0.90
2018-02-13T04:14:04.366Z,0.90
2018-02-13T04:16:31.816Z,1.00
2018-02-13T04:18:59.257Z,1.00
2018-02-13T04:21:26.698Z,1.00
2018-02-13T04:23:54.188Z,1.00
2018-02-13T04:26:21.632Z,1.00
2018-02-13T04:28:49.053Z,0.90
2018-02-13T04:31:17.277Z,0.90
2018-02-13T04:33:44.723Z,0.80
2018-02-13T04:36:12.161Z,0.90
2018-02-13T04:38:39.586Z,0.90
2018-02-13T04:41:07.837Z,0.90
2018-02-13T04:43:35.366Z,0.90
2018-02-13T04:46:02.815Z,0.90
2018-02-13T04:48:30.250Z,1.00
2018-02-13T04:50:57.685Z,1.00
2018-02-13T04:53:25.885Z,1.00
2018-02-13T04:55:53.373Z,1.00
2018-02-13T04:58:20.806Z,1.00
2018-02-13T05:00:48.290Z,0.90
2018-02-13T05:03:15.737Z,0.90
2018-02-13T05:05:43.175Z,0.90
2018-02-13T05:08:10.629Z,0.90
2018-02-13T05:10:38.109Z,0.90
2018-02-13T05:13:05.546Z,1.00
2018-02-13T05:15:33.026Z,0.90
2018-02-13T05:18:00.486Z,0.90
2018-02-13T05:20:27.942Z,0.90
2018-02-13T05:22:55.393Z,0.90
2018-02-13T05:25:22.853Z,0.90
2018-02-13T05:27:50.413Z,0.90
2018-02-13T05:30:17.870Z,0.90
2018-02-13T05:32:45.316Z,1.00
2018-02-13T05:35:12.750Z,1.00
2018-02-13T05:37:40.225Z,1.00
2018-02-13T05:40:07.657Z,1.00
2018-02-13T05:42:35.150Z,1.10
2018-02-13T05:45:02.705Z,1.10
2018-02-13T05:47:30.157Z,1.10
2018-02-13T05:49:57.616Z,1.10
2018-02-13T05:52:25.041Z,1.10
2018-02-13T05:54:52.488Z,1.10
2018-02-13T05:57:20.709Z,1.00
2018-02-13T05:59:48.169Z,1.00
2018-02-13T06:02:15.729Z,1.00
2018-02-13T06:04:43.243Z,1.10
2018-02-13T06:07:11.563Z,1.10
2018-02-13T06:09:39.108Z,1.10
2018-02-13T06:12:06.593Z,1.10
2018-02-13T06:14:34.137Z,1.20
2018-02-13T06:17:01.565Z,1.20
2018-02-13T06:19:29.010Z,1.20
2018-02-13T06:21:57.241Z,1.20
2018-02-13T06:24:24.789Z,1.20
2018-02-13T06:26:52.217Z,1.20
2018-02-13T06:29:19.733Z,1.10
2018-02-13T06:31:47.930Z,1.10
2018-02-13T06:34:15.437Z,1.00
2018-02-13T06:36:42.897Z,1.10
2018-02-13T06:39:10.339Z,1.20
2018-02-13T06:41:37.766Z,1.20
2018-02-13T06:44:05.364Z,1.30
2018-02-13T06:46:32.781Z,1.20
2018-02-13T06:49:00.221Z,3.10
2018-02-13T06:51:27.846Z,1.40
2018-02-13T06:53:55.697Z,1.30
2018-02-13T06:56:23.215Z,1.30
2018-02-13T06:58:50.609Z,1.40
2018-02-13T07:01:18.038Z,1.40
2018-02-13T07:03:45.504Z,1.50
2018-02-13T07:06:13.104Z,1.50
2018-02-13T07:08:40.691Z,1.50
2018-02-13T07:11:08.893Z,1.60
2018-02-13T07:13:36.333Z,1.60
2018-02-13T07:16:03.936Z,1.70
2018-02-13T07:18:31.677Z,1.70
2018-02-13T07:20:59.180Z,1.70
2018-02-13T07:23:26.647Z,1.70
2018-02-13T07:25:54.081Z,1.70
2018-02-13T07:28:21.606Z,1.80
2018-02-13T07:30:49.444Z,1.80
2018-02-13T07:33:16.929Z,1.80
2018-02-13T07:35:44.425Z,1.80
2018-02-13T07:38:12.048Z,1.90
2018-02-13T07:40:39.469Z,1.90
2018-02-13T07:43:07.836Z,2.00
2018-02-13T07:45:35.260Z,1.90
2018-02-13T07:48:02.698Z,1.90
2018-02-13T07:50:30.274Z,1.90
2018-02-13T07:52:57.713Z,1.80
2018-02-13T07:55:25.153Z,1.90
2018-02-13T07:57:52.631Z,1.90
2018-02-13T08:00:20.103Z,1.90
2018-02-13T08:02:47.635Z,2.00
2018-02-13T08:05:15.057Z,2.00
2018-02-13T08:07:43.357Z,2.20
2018-02-13T08:10:10.750Z,2.10
2018-02-13T08:12:38.209Z,2.30
2018-02-13T08:15:05.717Z,2.30
2018-02-13T08:17:33.180Z,2.30
2018-02-13T08:20:00.750Z,2.50
2018-02-13T08:22:28.183Z,2.40
2018-02-13T08:24:56.511Z,2.40
2018-02-13T08:27:23.957Z,2.40
2018-02-13T08:29:51.512Z,2.60
2018-02-13T08:32:18.985Z,2.50
2018-02-13T08:34:46.410Z,2.70
2018-02-13T08:37:13.906Z,2.70
2018-02-13T08:39:41.361Z,2.60
2018-02-13T08:42:08.796Z,2.60
2018-02-13T08:44:36.273Z,2.70
2018-02-13T08:47:03.813Z,2.60
2018-02-13T08:49:31.289Z,2.70
2018-02-13T08:51:58.735Z,2.70
2018-02-13T08:54:26.185Z,2.80
2018-02-13T08:56:53.644Z,2.80
2018-02-13T08:59:21.104Z,2.90
2018-02-13T09:01:48.570Z,2.80
2018-02-13T09:04:16.010Z,2.70
2018-02-13T09:06:43.522Z,2.80
2018-02-13T09:09:11.008Z,2.80
2018-02-13T09:11:38.506Z,2.90
2018-02-13T09:14:05.925Z,3.00
2018-02-13T09:16:33.377Z,3.00
2018-02-13T09:19:00.810Z,3.10
2018-02-13T09:21:28.254Z,3.10
2018-02-13T09:23:55.999Z,3.20
2018-02-13T09:26:23.536Z,3.20
2018-02-13T09:28:50.980Z,3.30
2018-02-13T09:31:18.532Z,3.40
2018-02-13T09:33:46.080Z,3.40
2018-02-13T09:36:13.960Z,3.40
2018-02-13T09:38:41.404Z,3.40
2018-02-13T09:41:08.889Z,3.50
2018-02-13T09:43:36.334Z,3.60
2018-02-13T09:46:03.909Z,3.50
2018-02-13T09:48:31.498Z,3.50
2018-02-13T09:50:59.707Z,3.80
2018-02-13T09:53:27.168Z,3.70
2018-02-13T09:55:54.604Z,3.80
2018-02-13T09:58:22.069Z,3.80
2018-02-13T10:00:49.502Z,3.90
2018-02-13T10:03:17.820Z,4.00
2018-02-13T10:05:45.249Z,4.00
2018-02-13T10:08:12.752Z,4.10
2018-02-13T10:10:40.318Z,4.10
2018-02-13T10:13:08.589Z,4.20
2018-02-13T10:15:36.033Z,4.20
2018-02-13T10:18:03.492Z,4.20
2018-02-13T10:20:30.928Z,4.30
2018-02-13T10:22:58.361Z,4.40
2018-02-13T10:25:25.830Z,4.30
2018-02-13T10:27:53.253Z,4.40
2018-02-13T10:30:21.486Z,4.50
2018-02-13T10:32:48.941Z,4.50
2018-02-13T10:35:16.368Z,4.50
2018-02-13T10:37:43.833Z,4.50
2018-02-13T10:40:11.341Z,4.50
2018-02-13T10:42:38.803Z,4.60
2018-02-13T10:45:06.321Z,4.60
2018-02-13T10:47:33.757Z,4.60
2018-02-13T10:50:01.200Z,4.70
2018-02-13T10:52:28.644Z,4.80
2018-02-13T10:54:56.871Z,5.00
2018-02-13T10:57:24.511Z,4.90
2018-02-13T10:59:52.006Z,5.10
2018-02-13T11:02:22.225Z,5.20
2018-02-13T11:04:49.669Z,5.30
2018-02-13T11:07:17.135Z,5.40
2018-02-13T11:09:44.552Z,5.50
2018-02-13T11:12:12.036Z,5.60
2018-02-13T11:14:39.478Z,5.60
2018-02-13T11:17:06.942Z,5.60
2018-02-13T11:19:34.365Z,5.60
2018-02-13T11:22:01.808Z,5.60
2018-02-13T11:24:30.015Z,5.70
2018-02-13T11:26:57.465Z,5.60
2018-02-13T11:29:24.946Z,5.70
2018-02-13T11:31:52.412Z,5.70
2018-02-13T11:34:19.849Z,5.70
2018-02-13T11:36:47.290Z,5.80
2018-02-13T11:39:14.998Z,5.90
2018-02-13T11:41:42.417Z,6.00
2018-02-13T11:44:09.848Z,6.00
2018-02-13T11:46:38.072Z,6.10
2018-02-13T11:49:05.506Z,6.00
2018-02-13T11:51:32.958Z,6.00
2018-02-13T11:54:00.384Z,6.10
2018-02-13T11:56:28.581Z,5.90
2018-02-13T11:58:56.093Z,5.90
2018-02-13T12:01:23.522Z,5.90
2018-02-13T12:03:51.086Z,6.10
2018-02-13T12:06:18.530Z,6.00
2018-02-13T12:08:46.106Z,6.00
2018-02-13T12:11:13.652Z,6.00
2018-02-13T12:13:41.093Z,6.10
2018-02-13T12:16:08.533Z,6.10
2018-02-13T12:18:36.026Z,6.10
2018-02-13T12:21:03.498Z,6.20
2018-02-13T12:23:31.045Z,6.30
2018-02-13T12:25:58.586Z,6.30
2018-02-13T12:28:26.017Z,6.20
2018-02-13T12:30:53.520Z,6.20
2018-02-13T12:33:20.973Z,6.20
2018-02-13T12:35:48.561Z,6.30
2018-02-13T12:38:16.784Z,6.30
2018-02-13T12:40:44.287Z,6.20
2018-02-13T12:43:11.914Z,6.40
2018-02-13T12:45:39.395Z,6.60
2018-02-13T12:48:06.818Z,6.70
2018-02-13T12:50:34.284Z,6.80
2018-02-13T12:53:01.735Z,6.80
2018-02-13T12:55:29.297Z,6.80
2018-02-13T12:57:56.725Z,6.70
2018-02-13T13:00:24.219Z,6.70
2018-02-13T13:02:51.743Z,6.90
2018-02-13T13:05:19.208Z,7.10
2018-02-13T13:07:46.669Z,7.10
2018-02-13T13:10:14.150Z,6.80
2018-02-13T13:12:41.585Z,6.80
2018-02-13T13:15:09.062Z,6.90
2018-02-13T13:17:36.493Z,6.90
2018-02-13T13:20:03.937Z,6.90
2018-02-13T13:22:31.434Z,7.00
2018-02-13T13:24:58.997Z,7.20
2018-02-13T13:27:26.552Z,7.20
2018-02-13T13:29:53.973Z,7.20
2018-02-13T13:32:21.406Z,7.20
2018-02-13T13:34:49.606Z,7.10
2018-02-13T13:37:17.305Z,7.10
2018-02-13T13:39:44.745Z,7.10
2018-02-13T13:42:12.181Z,6.80
2018-02-13T13:44:39.626Z,6.80
2018-02-13T13:47:07.049Z,6.70
2018-02-13T13:49:35.382Z,6.70
2018-02-13T13:52:02.850Z,6.70
2018-02-13T13:54:30.290Z,6.80
2018-02-13T13:56:57.714Z,6.90
2018-02-13T13:59:25.177Z,7.00
2018-02-13T14:01:52.679Z,7.20
2018-02-13T14:04:20.122Z,7.30
2018-02-13T14:06:48.382Z,7.40
2018-02-13T14:09:15.810Z,7.30
2018-02-13T14:11:43.247Z,7.40
2018-02-13T14:14:10.781Z,7.40
2018-02-13T14:16:38.295Z,7.40
2018-02-13T14:19:06.588Z,7.40
2018-02-13T14:21:34.058Z,7.40
2018-02-13T14:24:01.549Z,7.30
2018-02-13T14:26:29.058Z,7.30
2018-02-13T14:28:56.482Z,7.10
2018-02-13T14:31:23.905Z,7.10
2018-02-13T14:33:51.337Z,7.10
2018-02-13T14:36:18.790Z,7.20
2018-02-13T14:38:46.238Z,7.20
2018-02-13T14:41:13.713Z,7.30
2018-02-13T14:43:41.157Z,7.30
2018-02-13T14:46:08.595Z,7.30
2018-02-13T14:48:36.034Z,7.30
2018-02-13T14:51:03.542Z,7.30
2018-02-13T14:53:31.061Z,7.40
2018-02-13T14:55:58.657Z,7.40
2018-02-13T14:58:26.125Z,7.50
2018-02-13T15:00:53.964Z,7.40
2018-02-13T15:03:21.398Z,7.40
2018-02-13T15:05:48.894Z,7.30
2018-02-13T15:08:16.655Z,7.20
2018-02-13T15:10:44.501Z,7.10
2018-02-13T15:13:11.941Z,7.10
2018-02-13T15:15:39.368Z,7.00
2018-02-13T15:18:17.527Z,7.10
2018-02-13T15:20:45.104Z,7.00
2018-02-13T15:23:12.552Z,7.10
2018-02-13T15:25:40.025Z,7.20
2018-02-13T15:28:07.542Z,7.20
2018-02-13T15:30:35.002Z,7.20
2018-02-13T15:33:02.517Z,7.30
2018-02-13T15:35:29.948Z,7.20
2018-02-13T15:37:57.403Z,7.00
2018-02-13T15:40:24.890Z,6.90
2018-02-13T15:42:52.437Z,6.80
2018-02-13T15:45:19.882Z,6.70
2018-02-13T15:47:47.352Z,6.70
2018-02-13T15:50:14.870Z,6.80
2018-02-13T15:52:42.289Z,6.80
2018-02-13T15:55:10.534Z,6.90
2018-02-13T15:57:38.103Z,6.80
2018-02-13T16:00:05.560Z,6.80
2018-02-13T16:02:33.014Z,6.80
2018-02-13T16:05:00.449Z,6.70
2018-02-13T16:07:27.894Z,6.70
2018-02-13T16:09:55.381Z,6.60
2018-02-13T16:12:22.814Z,6.60
2018-02-13T16:14:50.269Z,6.60
2018-02-13T16:17:17.741Z,6.50
2018-02-13T16:19:45.197Z,6.50
2018-02-13T16:22:12.741Z,6.50
2018-02-13T16:24:40.197Z,6.40
2018-02-13T16:27:07.787Z,6.40
2018-02-13T16:29:35.187Z,6.40
2018-02-13T16:32:02.672Z,6.30
2018-02-13T16:34:30.240Z,6.30
2018-02-13T16:36:57.791Z,6.30
2018-02-13T16:39:25.247Z,6.10
2018-02-13T16:41:52.740Z,6.00
2018-02-13T16:44:20.960Z,5.90
2018-02-13T16:46:48.581Z,5.80
2018-02-13T16:49:16.951Z,5.80
2018-02-13T16:51:45.522Z,5.80
2018-02-13T16:54:13.074Z,5.80
2018-02-13T16:56:40.625Z,5.80
2018-02-13T16:59:08.083Z,5.70
2018-02-13T17:01:36.413Z,5.70
2018-02-13T17:04:03.921Z,5.60
2018-02-13T17:06:31.385Z,5.50
2018-02-13T17:08:58.858Z,5.40
2018-02-13T17:11:27.054Z,5.30
2018-02-13T17:13:54.518Z,5.20
2018-02-13T17:16:22.001Z,5.30
2018-02-13T17:18:49.444Z,5.30
2018-02-13T17:21:16.920Z,5.20
2018-02-13T17:23:44.389Z,5.20
2018-02-13T17:26:11.854Z,5.20
2018-02-13T17:28:40.217Z,5.10
2018-02-13T17:31:07.751Z,5.00
2018-02-13T17:33:35.853Z,5.10
2018-02-13T17:36:03.280Z,5.10
2018-02-13T17:38:30.750Z,5.00
2018-02-13T17:40:59.097Z,5.00
2018-02-13T17:43:26.622Z,5.00
2018-02-13T17:45:54.821Z,4.90
2018-02-13T17:48:23.038Z,4.90
2018-02-13T17:50:50.479Z,4.80
2018-02-13T17:53:17.910Z,4.80
2018-02-13T17:55:45.351Z,4.70
2018-02-13T17:58:13.578Z,4.70
2018-02-13T18:00:41.045Z,4.60
2018-02-13T18:03:08.509Z,4.70
2018-02-13T18:05:35.951Z,4.60
2018-02-13T18:08:03.407Z,4.60
2018-02-13T18:10:30.909Z,6.70
2018-02-13T18:12:59.125Z,4.60
2018-02-13T18:15:26.568Z,4.50
2018-02-13T18:17:54.018Z,4.60
2018-02-13T18:20:21.481Z,4.60
2018-02-13T18:22:48.898Z,4.50
2018-02-13T18:25:17.133Z,4.50
2018-02-13T18:27:44.592Z,4.40
2018-02-13T18:30:12.097Z,4.50
2018-02-13T18:32:40.333Z,4.40
2018-02-13T18:35:07.773Z,4.40
2018-02-13T18:37:35.330Z,4.40
2018-02-13T18:40:02.781Z,4.30
2018-02-13T18:42:30.238Z,4.30
2018-02-13T18:44:57.721Z,4.30
2018-02-13T18:47:25.277Z,4.20
2018-02-13T18:49:52.716Z,4.20
2018-02-13T18:54:47.757Z,4.10
2018-02-13T18:57:16.044Z,4.10
2018-02-13T18:59:43.465Z,4.00
2018-02-13T19:02:11.004Z,4.00
2018-02-13T19:04:38.461Z,4.00
2018-02-13T19:07:05.893Z,4.00
2018-02-13T19:09:34.233Z,4.10
2018-02-13T19:12:02.057Z,4.00
2018-02-13T19:14:29.512Z,4.00
2018-02-13T19:19:24.405Z,3.90
2018-02-13T19:21:51.850Z,3.90
2018-02-13T19:24:20.068Z,3.80
2018-02-13T19:26:47.525Z,3.80
2018-02-13T19:29:14.944Z,3.80
2018-02-13T19:31:42.390Z,2.30
2018-02-13T19:34:10.633Z,3.60
2018-02-13T19:36:38.849Z,3.60
2018-02-13T19:39:07.044Z,3.60
2018-02-13T19:41:34.484Z,3.50
2018-02-13T19:44:02.020Z,3.50
2018-02-13T19:46:29.488Z,3.30
2018-02-13T19:48:57.715Z,3.20
2018-02-13T19:51:25.179Z,3.10
2018-02-13T19:53:52.794Z,3.20
2018-02-13T19:56:21.121Z,3.10
2018-02-13T19:58:48.556Z,3.00
2018-02-13T20:01:15.976Z,3.00
2018-02-13T20:03:43.415Z,3.10
2018-02-13T20:06:11.658Z,3.00
2018-02-13T20:08:39.080Z,3.00
2018-02-13T20:11:06.518Z,3.00
2018-02-13T20:13:33.974Z,3.00
2018-02-13T20:16:01.467Z,3.10
2018-02-13T20:18:28.921Z,3.10
2018-02-13T20:20:56.394Z,3.10
2018-02-13T20:23:23.919Z,3.10
2018-02-13T20:25:51.346Z,3.10
2018-02-13T20:28:19.541Z,3.00
2018-02-13T20:30:46.989Z,3.00
2018-02-13T20:33:14.643Z,3.00
2018-02-13T20:35:42.861Z,2.90
2018-02-13T20:38:10.318Z,2.80
2018-02-13T20:40:37.777Z,2.80
2018-02-13T20:43:05.346Z,2.80
2018-02-13T20:45:32.761Z,2.70
2018-02-13T20:48:00.249Z,2.70
2018-02-13T20:50:27.686Z,2.70
2018-02-13T20:52:55.145Z,2.60
2018-02-13T20:55:22.605Z,2.60
2018-02-13T20:57:50.046Z,2.50
2018-02-13T21:00:17.817Z,2.50
2018-02-13T21:02:45.412Z,2.50
2018-02-13T21:05:12.833Z,2.40
2018-02-13T21:07:40.278Z,2.40
2018-02-13T21:10:07.709Z,2.40
2018-02-13T21:12:35.920Z,2.40
2018-02-13T21:15:03.398Z,2.30
2018-02-13T21:17:30.849Z,2.40
2018-02-13T21:19:58.291Z,2.40
2018-02-13T21:22:25.770Z,2.40
2018-02-13T21:24:53.203Z,2.40
2018-02-13T21:27:20.677Z,2.30
2018-02-13T21:29:48.222Z,2.30
2018-02-13T21:32:15.701Z,2.40
2018-02-13T21:34:43.158Z,2.30
2018-02-13T21:37:10.617Z,2.20
2018-02-13T21:39:38.149Z,2.20
2018-02-13T21:42:05.722Z,2.10
2018-02-13T21:44:33.188Z,2.10
2018-02-13T21:47:00.617Z,2.10
2018-02-13T21:49:28.058Z,2.10
2018-02-13T21:51:55.527Z,2.10
2018-02-13T21:54:23.092Z,2.10
2018-02-13T21:56:50.572Z,2.10
2018-02-13T21:59:18.022Z,2.20
2018-02-13T22:01:45.489Z,2.10
2018-02-13T22:04:12.933Z,2.20
2018-02-13T22:06:40.383Z,2.20
2018-02-13T22:09:07.819Z,2.10
2018-02-13T22:11:35.256Z,2.10
2018-02-13T22:14:03.465Z,2.10
2018-02-13T22:16:30.938Z,2.00
2018-02-13T22:18:58.402Z,2.10
2018-02-13T22:21:25.918Z,2.00
2018-02-13T22:23:53.347Z,2.00
2018-02-13T22:26:21.562Z,1.90
2018-02-13T22:28:49.041Z,1.90
2018-02-13T22:31:16.484Z,1.90
2018-02-13T22:33:43.962Z,1.90
2018-02-13T22:36:11.417Z,2.00
2018-02-13T22:38:38.850Z,1.90
2018-02-13T22:41:06.412Z,1.80
2018-02-13T22:43:33.813Z,1.80
2018-02-13T22:46:01.293Z,1.90
2018-02-13T22:48:29.500Z,1.90
2018-02-13T22:50:56.958Z,1.90
2018-02-13T22:53:24.513Z,2.00
2018-02-13T22:55:51.966Z,1.90
2018-02-13T22:58:19.408Z,1.90
2018-02-13T23:00:46.997Z,1.80
2018-02-13T23:03:14.445Z,1.70
2018-02-13T23:05:41.905Z,1.60
2018-02-13T23:08:09.351Z,1.60
2018-02-13T23:10:36.829Z,1.60
2018-02-13T23:13:04.265Z,1.60
2018-02-13T23:15:31.745Z,1.60
2018-02-13T23:17:59.302Z,1.60
2018-02-13T23:20:26.757Z,1.60
2018-02-13T23:22:54.353Z,1.60
2018-02-13T23:25:22.593Z,1.50
2018-02-13T23:27:51.076Z,1.50
2018-02-13T23:30:18.513Z,1.50
2018-02-13T23:32:45.974Z,1.40
2018-02-13T23:35:13.426Z,1.40
2018-02-13T23:37:40.893Z,1.30
2018-02-13T23:40:08.341Z,1.30
2018-02-13T23:42:35.785Z,1.30
2018-02-13T23:45:03.217Z,1.20
2018-02-13T23:47:30.726Z,1.20
2018-02-13T23:49:58.162Z,1.30
2018-02-13T23:52:25.636Z,1.30
2018-02-13T23:54:53.098Z,1.30
2018-02-13T23:57:20.787Z,1.30
2018-02-13T23:59:49.239Z,1.10
